Time;durP1;ratioP1;P1;durP2;ratioP2;P2;SDS_P1;SDS_P2;PMS_P1;PMS_P2;Temp;Humidity;BMP_temperature;BMP_pressure;BME280_temperature;BME280_humidity;BME280_pressure;Samples;Min_cycle;Max_cycle;Signal;HPM_P1;HPM_P2
2022/07/02 00:00:57;;;;;;;5.57;2.50;;;12.90;99.90;;;;;;5039246;28;20097;-77
2022/07/02 00:03:30;;;;;;;4.85;2.30;;;12.80;99.90;;;;;;5028311;28;20034;-78
2022/07/02 00:05:58;;;;;;;3.65;2.08;;;12.80;99.90;;;;;;5019788;28;20040;-77
2022/07/02 00:08:26;;;;;;;2.83;1.67;;;12.70;99.90;;;;;;5033891;28;20044;-78
2022/07/02 00:10:54;;;;;;;3.25;1.70;;;12.60;99.90;;;;;;5028582;28;20038;-77
2022/07/02 00:13:21;;;;;;;2.20;1.58;;;12.60;99.90;;;;;;5021037;28;20053;-78
2022/07/02 00:15:48;;;;;;;3.20;1.98;;;12.50;99.90;;;;;;5018790;28;20466;-79
2022/07/02 00:18:15;;;;;;;2.40;1.70;;;12.40;99.90;;;;;;5015381;28;20391;-77
2022/07/02 00:20:43;;;;;;;2.78;1.20;;;12.40;99.90;;;;;;5021461;28;20471;-77
2022/07/02 00:23:10;;;;;;;2.50;1.58;;;12.30;99.90;;;;;;5026146;28;20034;-77
2022/07/02 00:25:42;;;;;;;4.05;1.80;;;12.30;99.90;;;;;;5016932;28;20468;-77
2022/07/02 00:28:14;;;;;;;2.22;1.65;;;12.30;99.90;;;;;;5026352;28;20042;-77
2022/07/02 00:30:45;;;;;;;3.55;1.85;;;12.40;99.90;;;;;;5031864;28;20049;-78
2022/07/02 00:33:16;;;;;;;2.40;1.70;;;12.40;99.90;;;;;;5023870;28;20041;-78
2022/07/02 00:35:43;;;;;;;4.07;1.55;;;12.50;99.90;;;;;;5022328;28;20030;-76
2022/07/02 00:38:09;;;;;;;2.90;2.33;;;12.60;99.90;;;;;;5028484;28;20038;-77
2022/07/02 00:40:37;;;;;;;3.67;1.70;;;12.50;99.90;;;;;;5032821;28;20045;-78
2022/07/02 00:43:04;;;;;;;3.92;1.60;;;12.40;99.90;;;;;;5031624;28;20033;-78
2022/07/02 00:45:33;;;;;;;2.45;1.55;;;12.30;99.90;;;;;;5031472;28;20056;-78
2022/07/02 00:48:00;;;;;;;3.28;1.75;;;12.20;99.90;;;;;;5027929;28;20034;-78
2022/07/02 00:50:26;;;;;;;3.13;1.98;;;12.00;99.90;;;;;;5020324;28;20033;-78
2022/07/02 00:52:53;;;;;;;2.60;1.92;;;12.00;99.90;;;;;;5017532;28;20041;-78
2022/07/02 00:55:19;;;;;;;2.60;1.77;;;12.00;99.90;;;;;;5020442;28;20053;-78
2022/07/02 00:57:46;;;;;;;4.30;2.22;;;12.10;99.90;;;;;;5017897;28;20045;-83
2022/07/02 01:00:15;;;;;;;3.63;1.75;;;12.10;99.90;;;;;;5027097;28;20537;-77
2022/07/02 01:02:44;;;;;;;4.57;2.42;;;12.10;99.90;;;;;;5017778;28;20029;-77
2022/07/02 01:05:15;;;;;;;2.40;1.70;;;12.00;99.90;;;;;;5012888;28;20025;-76
2022/07/02 01:10:16;;;;;;;3.35;1.77;;;12.00;99.90;;;;;;5028823;28;20034;-76
2022/07/02 01:10:43;;;;;;;2.42;1.50;;;12.10;99.90;;;;;;5026242;28;20042;-77
2022/07/02 01:13:11;;;;;;;3.05;2.47;;;12.30;99.90;;;;;;5021818;28;20029;-81
2022/07/02 01:15:39;;;;;;;2.58;2.10;;;12.20;99.90;;;;;;5016304;28;20076;-78
2022/07/02 01:18:05;;;;;;;2.47;1.45;;;12.00;99.90;;;;;;5015301;28;20033;-79
2022/07/02 01:20:32;;;;;;;3.30;1.80;;;12.00;99.90;;;;;;5017652;28;20026;-79
2022/07/02 01:22:58;;;;;;;2.20;1.40;;;11.90;99.90;;;;;;5014458;28;20053;-78
2022/07/02 01:25:24;;;;;;;3.75;1.23;;;12.00;99.90;;;;;;5013461;28;20030;-78
2022/07/02 01:27:50;;;;;;;3.33;1.63;;;12.10;99.90;;;;;;5025828;28;20037;-78
2022/07/02 01:30:16;;;;;;;3.53;1.83;;;12.20;99.90;;;;;;5021061;28;20025;-77
2022/07/02 01:32:43;;;;;;;2.47;1.42;;;12.30;99.90;;;;;;5020385;28;20030;-78
2022/07/02 01:35:09;;;;;;;2.13;1.17;;;12.30;99.90;;;;;;5022007;28;20033;-78
2022/07/02 01:37:38;;;;;;;2.47;1.50;;;12.20;99.90;;;;;;5020773;28;20030;-78
2022/07/02 01:40:05;;;;;;;2.08;1.20;;;12.20;99.90;;;;;;5028687;28;20038;-79
2022/07/02 01:42:31;;;;;;;3.33;1.10;;;12.20;99.90;;;;;;5017488;28;20032;-78
2022/07/02 01:44:57;;;;;;;2.67;1.52;;;12.30;99.90;;;;;;5013176;28;20045;-79
2022/07/02 01:47:23;;;;;;;3.08;1.30;;;12.20;99.90;;;;;;5018745;28;20030;-78
2022/07/02 01:49:49;;;;;;;1.80;1.10;;;12.00;99.90;;;;;;5021120;28;20458;-78
2022/07/02 01:52:16;;;;;;;3.05;1.42;;;11.90;99.90;;;;;;5016399;28;20037;-77
2022/07/02 01:54:43;;;;;;;2.20;1.45;;;11.80;99.90;;;;;;5013525;28;20030;-76
2022/07/02 01:57:09;;;;;;;2.85;1.50;;;11.80;99.90;;;;;;5016585;28;20049;-77
2022/07/02 01:59:36;;;;;;;1.90;1.25;;;11.70;99.90;;;;;;5043861;28;20033;-78
2022/07/02 02:02:03;;;;;;;3.90;1.48;;;11.70;99.90;;;;;;5020292;28;20029;-78
2022/07/02 02:04:30;;;;;;;6.50;1.52;;;11.80;99.90;;;;;;5014166;28;20435;-78
2022/07/02 02:06:56;;;;;;;2.50;1.77;;;11.90;99.90;;;;;;5021601;28;20383;-77
2022/07/02 02:09:23;;;;;;;2.67;1.40;;;11.90;99.90;;;;;;5021522;28;20037;-81
2022/07/02 02:11:49;;;;;;;3.22;1.80;;;11.70;99.90;;;;;;5015361;28;20030;-78
2022/07/02 02:14:16;;;;;;;1.88;1.33;;;11.60;99.90;;;;;;5033752;28;20052;-77
2022/07/02 02:16:42;;;;;;;3.10;1.77;;;11.50;99.90;;;;;;5031778;28;20037;-78
2022/07/02 02:19:08;;;;;;;4.40;1.80;;;11.60;99.90;;;;;;5024723;28;20046;-78
2022/07/02 02:21:35;;;;;;;2.50;1.40;;;11.60;99.90;;;;;;5015729;28;20038;-77
2022/07/02 02:24:01;;;;;;;2.60;1.75;;;11.60;99.90;;;;;;5018143;28;20052;-77
2022/07/02 02:26:27;;;;;;;5.75;1.80;;;11.70;99.90;;;;;;5031440;28;20430;-77
2022/07/02 02:28:54;;;;;;;2.17;1.38;;;11.50;99.90;;;;;;5017421;28;20060;-77
2022/07/02 02:31:21;;;;;;;5.03;2.00;;;11.40;99.90;;;;;;5024991;28;20048;-76
2022/07/02 02:33:48;;;;;;;3.33;1.80;;;11.20;99.90;;;;;;5016746;28;20038;-84
2022/07/02 02:36:14;;;;;;;4.85;1.70;;;11.10;99.90;;;;;;5014904;28;20045;-77
2022/07/02 02:38:40;;;;;;;3.33;1.52;;;11.10;99.90;;;;;;5020622;28;20406;-77
2022/07/02 02:41:07;;;;;;;3.88;1.70;;;11.00;99.90;;;;;;5018053;28;20133;-77
2022/07/02 02:43:35;;;;;;;3.00;2.00;;;11.10;99.90;;;;;;5022870;28;20069;-77
2022/07/02 02:46:02;;;;;;;2.85;1.77;;;11.10;99.90;;;;;;5029442;28;20022;-77
2022/07/02 02:48:29;;;;;;;3.05;1.95;;;11.10;99.90;;;;;;5021799;28;20038;-78
2022/07/02 02:50:56;;;;;;;4.97;1.77;;;11.00;99.90;;;;;;5032280;28;20386;-79
2022/07/02 02:53:23;;;;;;;2.95;1.63;;;10.80;99.90;;;;;;5020066;28;20034;-78
2022/07/02 02:55:49;;;;;;;3.85;2.08;;;10.70;99.90;;;;;;5025003;28;20044;-82
2022/07/02 02:58:16;;;;;;;4.03;1.90;;;10.60;99.90;;;;;;5028024;28;20037;-77
2022/07/02 03:00:42;;;;;;;3.33;2.05;;;10.60;99.90;;;;;;5013247;28;20038;-77
2022/07/02 03:03:08;;;;;;;3.45;1.80;;;10.70;99.90;;;;;;5021471;28;20030;-79
2022/07/02 03:05:35;;;;;;;3.00;2.00;;;10.80;99.90;;;;;;5018224;28;20029;-77
2022/07/02 03:08:01;;;;;;;4.00;1.85;;;10.70;99.90;;;;;;5023105;28;20041;-76
2022/07/02 03:10:27;;;;;;;4.90;2.15;;;10.70;99.90;;;;;;5021672;28;20030;-76
2022/07/02 03:12:53;;;;;;;3.50;1.75;;;10.60;99.90;;;;;;5019624;28;20037;-81
2022/07/02 03:15:19;;;;;;;2.38;1.73;;;10.60;99.90;;;;;;5016603;28;20046;-78
2022/07/02 03:17:45;;;;;;;2.85;1.75;;;10.70;99.90;;;;;;5017485;28;20044;-76
2022/07/02 03:20:12;;;;;;;3.17;1.90;;;10.70;99.90;;;;;;5018284;28;20045;-80
2022/07/02 03:22:38;;;;;;;2.67;1.73;;;10.70;99.90;;;;;;5029279;28;20049;-77
2022/07/02 03:25:05;;;;;;;5.20;2.10;;;10.60;99.90;;;;;;5021028;28;20026;-78
2022/07/02 03:27:31;;;;;;;2.38;1.92;;;10.50;99.90;;;;;;5028063;28;20034;-77
2022/07/02 03:29:57;;;;;;;2.60;1.88;;;10.50;99.90;;;;;;5019813;28;20029;-77
2022/07/02 03:32:28;;;;;;;2.70;1.77;;;10.50;99.90;;;;;;5017651;28;20030;-79
2022/07/02 03:34:55;;;;;;;3.83;1.70;;;10.50;99.90;;;;;;5013753;28;20030;-79
2022/07/02 03:37:25;;;;;;;4.28;1.88;;;10.70;99.90;;;;;;5020778;28;20451;-78
2022/07/02 03:39:52;;;;;;;2.40;1.60;;;10.80;99.90;;;;;;5022677;28;20041;-78
2022/07/02 03:42:18;;;;;;;4.15;1.75;;;10.80;99.90;;;;;;5026848;28;20303;-78
2022/07/02 03:44:44;;;;;;;3.35;2.00;;;10.80;99.90;;;;;;5029014;28;20034;-78
2022/07/02 03:47:11;;;;;;;3.97;1.95;;;10.90;99.90;;;;;;5017256;28;20038;-78
2022/07/02 03:49:37;;;;;;;2.28;1.83;;;11.00;99.90;;;;;;5017919;28;20038;-78
2022/07/02 03:52:04;;;;;;;3.33;1.83;;;11.10;99.90;;;;;;5017675;28;20030;-78
2022/07/02 03:54:31;;;;;;;2.30;1.63;;;11.00;99.90;;;;;;5020205;28;20091;-79
2022/07/02 03:56:57;;;;;;;2.92;1.55;;;11.00;99.90;;;;;;5020487;28;20395;-79
2022/07/02 03:59:24;;;;;;;2.47;1.63;;;11.10;99.90;;;;;;5020130;28;20029;-78
2022/07/02 04:01:52;;;;;;;3.08;1.42;;;11.00;99.90;;;;;;5017284;28;20044;-82
2022/07/02 04:04:19;;;;;;;2.85;1.60;;;10.80;99.90;;;;;;5016359;28;20033;-78
2022/07/02 04:06:45;;;;;;;2.50;1.40;;;10.70;99.90;;;;;;5018526;28;20030;-79
2022/07/02 04:09:12;;;;;;;2.95;1.80;;;10.70;99.90;;;;;;5015279;28;20053;-78
2022/07/02 04:11:38;;;;;;;2.25;1.70;;;10.80;99.90;;;;;;5019019;28;20042;-78
2022/07/02 04:14:04;;;;;;;2.55;1.75;;;10.90;99.90;;;;;;5018836;28;20514;-78
2022/07/02 04:16:31;;;;;;;2.40;1.67;;;11.10;99.90;;;;;;5018960;28;20054;-78
2022/07/02 04:18:57;;;;;;;1.42;1.17;;;11.20;99.90;;;;;;5018669;28;20424;-80
2022/07/02 04:21:23;;;;;;;2.25;1.50;;;11.20;99.90;;;;;;5027307;28;20044;-78
2022/07/02 04:23:49;;;;;;;2.10;1.00;;;11.60;99.90;;;;;;5026281;28;20029;-82
2022/07/02 04:26:15;;;;;;;2.40;1.08;;;13.00;99.90;;;;;;5020584;28;20050;-80
2022/07/02 04:28:41;;;;;;;1.38;0.77;;;14.30;99.90;;;;;;5021833;28;20030;-78
2022/07/02 04:31:08;;;;;;;6.28;1.63;;;14.80;99.90;;;;;;5015091;28;20033;-79
2022/07/02 04:33:34;;;;;;;1.10;0.82;;;15.40;99.90;;;;;;5034159;28;20033;-80
2022/07/02 04:36:01;;;;;;;1.65;0.90;;;16.10;99.90;;;;;;5019184;28;20411;-78
2022/07/02 04:38:27;;;;;;;2.50;1.20;;;18.00;99.90;;;;;;5015722;28;20030;-79
2022/07/02 04:40:53;;;;;;;1.92;0.80;;;18.80;97.10;;;;;;5030310;28;20033;-79
2022/07/02 04:43:19;;;;;;;2.20;1.30;;;18.90;96.60;;;;;;5022107;28;20041;-79
2022/07/02 04:45:46;;;;;;;1.17;0.77;;;18.70;96.60;;;;;;5026635;28;20046;-80
2022/07/02 04:48:12;;;;;;;1.77;0.43;;;18.90;95.80;;;;;;5030179;28;20040;-79
2022/07/02 04:50:38;;;;;;;2.25;0.80;;;20.20;92.00;;;;;;5014825;28;20096;-82
2022/07/02 04:53:04;;;;;;;2.15;0.80;;;21.00;88.50;;;;;;5016494;28;20033;-79
2022/07/02 04:55:30;;;;;;;2.08;1.00;;;21.50;87.60;;;;;;5019833;28;20049;-78
2022/07/02 04:57:56;;;;;;;1.38;0.70;;;22.20;83.30;;;;;;5014377;28;20353;-78
2022/07/02 05:00:23;;;;;;;2.13;1.00;;;23.10;76.40;;;;;;5017664;28;20037;-80
2022/07/02 05:02:49;;;;;;;2.28;0.90;;;23.20;72.70;;;;;;5015817;28;20034;-84
2022/07/02 05:05:15;;;;;;;0.98;0.80;;;22.30;77.30;;;;;;5030085;28;20036;-80
2022/07/02 05:07:41;;;;;;;2.22;1.00;;;22.10;79.20;;;;;;5026159;28;20026;-79
2022/07/02 05:10:08;;;;;;;3.45;1.25;;;23.40;79.50;;;;;;5019345;28;20240;-79
2022/07/02 05:12:34;;;;;;;2.08;1.67;;;25.30;67.90;;;;;;5017803;28;20030;-80
2022/07/02 05:15:00;;;;;;;2.90;1.10;;;24.40;68.80;;;;;;5013930;28;20419;-79
2022/07/02 05:17:26;;;;;;;3.95;1.27;;;24.00;69.90;;;;;;5017766;28;20040;-79
2022/07/02 05:19:53;;;;;;;3.17;1.05;;;23.60;71.30;;;;;;5015881;28;20038;-79
2022/07/02 05:22:19;;;;;;;1.90;1.20;;;23.60;71.20;;;;;;5019703;28;20038;-79
2022/07/02 05:24:45;;;;;;;1.52;1.17;;;23.30;71.90;;;;;;5015501;28;20033;-79
2022/07/02 05:27:11;;;;;;;2.88;1.35;;;23.20;73.60;;;;;;5024092;28;20044;-78
2022/07/02 05:29:37;;;;;;;4.70;2.28;;;22.70;77.40;;;;;;5024454;28;20053;-79
2022/07/02 05:32:04;;;;;;;2.10;1.58;;;23.50;73.60;;;;;;5018754;28;20034;-80
2022/07/02 05:34:30;;;;;;;3.58;1.20;;;22.80;76.70;;;;;;5017777;28;20037;-79
2022/07/02 05:36:56;;;;;;;4.25;1.60;;;22.20;81.00;;;;;;5029015;28;20101;-80
2022/07/02 05:39:22;;;;;;;3.50;1.48;;;22.50;83.70;;;;;;5028844;28;20042;-80
2022/07/02 05:41:49;;;;;;;4.50;1.55;;;23.20;77.10;;;;;;5029956;28;20033;-83
2022/07/02 05:44:15;;;;;;;6.95;1.85;;;23.00;77.50;;;;;;5016701;28;20034;-79
2022/07/02 05:46:42;;;;;;;3.17;1.25;;;22.70;77.10;;;;;;5014050;28;20030;-79
2022/07/02 05:49:08;;;;;;;3.65;1.25;;;21.80;82.20;;;;;;5013092;28;20286;-80
2022/07/02 05:51:34;;;;;;;1.88;1.17;;;21.60;85.20;;;;;;5031089;28;20054;-80
2022/07/02 05:54:00;;;;;;;2.05;1.45;;;21.20;87.60;;;;;;5019401;28;20025;-79
2022/07/02 05:56:26;;;;;;;3.17;1.48;;;20.90;89.80;;;;;;5024944;28;20379;-80
2022/07/02 05:58:52;;;;;;;2.30;1.10;;;21.10;89.40;;;;;;5027273;28;20029;-80
2022/07/02 06:01:19;;;;;;;2.72;1.33;;;21.00;90.50;;;;;;5027289;28;20053;-80
2022/07/02 06:03:45;;;;;;;4.45;1.40;;;21.70;88.80;;;;;;5026232;28;20419;-81
2022/07/02 06:08:56;;;;;;;4.40;1.25;;;21.10;90.10;;;;;;5021076;28;20053;-79
2022/07/02 06:11:22;;;;;;;2.13;1.20;;;20.10;92.40;;;;;;5025387;28;20033;-80
2022/07/02 06:13:48;;;;;;;2.63;1.33;;;20.40;92.80;;;;;;5034698;28;20060;-82
2022/07/02 06:16:15;;;;;;;3.72;1.95;;;21.20;92.30;;;;;;5025636;28;20427;-80
2022/07/02 06:18:41;;;;;;;2.92;0.80;;;22.60;85.30;;;;;;5026723;28;20029;-80
2022/07/02 06:21:07;;;;;;;8.43;1.50;;;21.90;86.40;;;;;;5028028;28;20029;-80
2022/07/02 06:23:34;;;;;;;2.28;1.10;;;20.70;90.60;;;;;;5027618;28;20030;-80
2022/07/02 06:26:00;;;;;;;3.30;1.10;;;20.70;91.20;;;;;;5024874;28;20033;-80
2022/07/02 06:28:26;;;;;;;2.55;1.00;;;21.10;90.20;;;;;;5028731;28;20029;-79
2022/07/02 06:30:52;;;;;;;2.33;1.23;;;21.00;92.40;;;;;;5030732;28;20451;-82
2022/07/02 06:33:18;;;;;;;4.68;1.20;;;21.60;89.80;;;;;;5024937;28;20038;-80
2022/07/02 06:35:45;;;;;;;2.50;0.98;;;21.90;89.90;;;;;;5026986;28;20379;-79
2022/07/02 06:38:11;;;;;;;3.72;0.98;;;22.30;84.00;;;;;;5019244;28;20034;-79
2022/07/02 06:40:38;;;;;;;2.13;1.10;;;22.40;82.90;;;;;;5024228;28;20383;-79
2022/07/02 06:43:04;;;;;;;2.75;1.00;;;22.30;84.10;;;;;;5017216;28;20447;-80
2022/07/02 06:45:30;;;;;;;2.38;0.70;;;21.70;86.10;;;;;;5014293;28;20093;-79
2022/07/02 06:47:58;;;;;;;2.53;0.70;;;21.50;87.40;;;;;;5015537;28;20066;-79
2022/07/02 06:50:24;;;;;;;1.73;0.88;;;22.20;85.40;;;;;;5017057;28;20056;-80
2022/07/02 06:52:50;;;;;;;3.70;0.93;;;22.20;82.30;;;;;;5025176;28;20045;-82
2022/07/02 06:55:20;;;;;;;2.40;1.17;;;22.00;85.30;;;;;;5015664;28;20034;-80
2022/07/02 06:57:47;;;;;;;;;;;22.40;82.50;;;;;;5025574;28;20042;-80
2022/07/02 07:00:13;;;;;;;2.25;0.80;;;21.90;84.60;;;;;;5017311;28;19920;-79
2022/07/02 07:02:39;;;;;;;2.08;0.90;;;21.80;85.40;;;;;;5012024;28;20376;-82
2022/07/02 07:05:06;;;;;;;2.08;0.88;;;21.80;83.20;;;;;;5014372;28;20038;-78
2022/07/02 07:07:34;;;;;;;2.28;0.95;;;21.70;82.00;;;;;;5017195;28;20037;-78
2022/07/02 07:10:01;;;;;;;2.78;0.65;;;23.10;80.30;;;;;;5012468;28;20399;-79
2022/07/02 07:12:27;;;;;;;1.75;0.50;;;23.20;71.90;;;;;;5024559;28;20029;-79
2022/07/02 07:14:53;;;;;;;1.77;0.60;;;23.50;75.20;;;;;;5015178;28;20034;-83
2022/07/02 07:17:19;;;;;;;2.83;1.10;;;23.20;72.30;;;;;;5016060;28;20048;-81
2022/07/02 07:19:45;;;;;;;2.85;0.75;;;23.50;75.80;;;;;;5016996;28;20041;-79
2022/07/02 07:22:12;;;;;;;1.73;0.68;;;24.20;71.80;;;;;;5019090;28;20029;-78
2022/07/02 07:24:38;;;;;;;1.73;0.68;;;25.00;67.90;;;;;;5022931;28;20037;-79
2022/07/02 07:27:05;;;;;;;1.20;0.55;;;25.50;65.20;;;;;;5026588;28;20045;-80
2022/07/02 07:29:31;;;;;;;3.60;0.75;;;24.40;67.40;;;;;;5029770;28;20044;-79
2022/07/02 07:31:57;;;;;;;2.70;0.65;;;23.20;73.20;;;;;;5027070;28;20026;-77
2022/07/02 07:34:23;;;;;;;2.42;0.80;;;23.30;72.70;;;;;;5036690;28;20037;-78
2022/07/02 07:36:52;;;;;;;13.75;7.25;;;24.30;71.00;;;;;;5027300;28;20037;-78
2022/07/02 07:39:18;;;;;;;112.68;61.72;;;24.70;67.40;;;;;;5025084;28;20049;-78
2022/07/02 07:41:44;;;;;;;19.92;18.70;;;24.30;67.40;;;;;;5023178;28;20037;-80
2022/07/02 07:44:10;;;;;;;17.20;16.40;;;24.30;67.50;;;;;;5023567;28;20040;-79
2022/07/02 07:46:36;;;;;;;41.35;38.90;;;24.10;71.00;;;;;;5025248;28;20471;-82
2022/07/02 07:49:03;;;;;;;4.75;4.35;;;23.80;70.90;;;;;;5012723;28;20033;-80
2022/07/02 07:51:29;;;;;;;5.85;5.47;;;23.50;71.40;;;;;;5014199;28;20037;-82
2022/07/02 07:53:55;;;;;;;0.80;0.73;;;23.50;72.20;;;;;;5015298;28;20030;-80
2022/07/02 07:56:21;;;;;;;2.03;0.70;;;24.20;70.80;;;;;;5029530;28;20048;-79
2022/07/02 07:58:48;;;;;;;1.52;0.70;;;25.20;66.20;;;;;;5020448;28;20399;-79
2022/07/02 08:01:14;;;;;;;1.90;0.80;;;25.70;65.20;;;;;;5017251;28;20048;-79
2022/07/02 08:03:40;;;;;;;1.00;0.60;;;25.10;65.00;;;;;;5043264;28;20030;-80
2022/07/02 08:06:06;;;;;;;1.30;0.52;;;25.30;65.60;;;;;;5028795;28;20033;-78
2022/07/02 08:08:33;;;;;;;0.80;0.40;;;25.30;63.20;;;;;;5029152;28;20030;-79
2022/07/02 08:10:59;;;;;;;2.17;0.68;;;25.00;64.70;;;;;;5017406;28;20048;-81
2022/07/02 08:13:25;;;;;;;109.55;66.63;;;24.70;69.90;;;;;;5022779;28;20041;-83
2022/07/02 08:15:51;;;;;;;4.45;0.93;;;25.60;65.10;;;;;;5049612;28;20042;-81
2022/07/02 08:18:18;;;;;;;74.30;51.58;;;24.90;65.80;;;;;;5043075;28;20034;-81
2022/07/02 08:20:44;;;;;;;110.50;85.35;;;25.30;66.50;;;;;;5042003;28;20044;-79
2022/07/02 08:23:10;;;;;;;86.72;44.47;;;25.70;61.80;;;;;;5034876;28;20033;-81
2022/07/02 08:25:36;;;;;;;218.77;131.88;;;25.70;61.30;;;;;;5030023;28;20034;-79
2022/07/02 08:28:04;;;;;;;542.65;497.50;;;25.40;60.20;;;;;;5032200;28;20494;-79
2022/07/02 08:30:30;;;;;;;164.65;41.35;;;25.60;59.40;;;;;;5029423;28;20471;-79
2022/07/02 08:32:56;;;;;;;0.60;0.50;;;25.70;59.30;;;;;;5014754;28;20041;-80
2022/07/02 08:35:22;;;;;;;1.50;0.35;;;25.70;58.30;;;;;;5028632;28;20040;-80
2022/07/02 08:37:49;;;;;;;0.50;0.40;;;25.60;58.70;;;;;;5022046;28;20045;-80
2022/07/02 08:40:15;;;;;;;1.80;0.80;;;25.60;58.50;;;;;;5020906;28;20037;-81
2022/07/02 08:42:43;;;;;;;1.10;0.60;;;24.80;59.40;;;;;;5045946;28;20036;-79
2022/07/02 08:45:11;;;;;;;1.05;0.45;;;24.10;62.20;;;;;;5021515;28;20034;-79
2022/07/02 08:47:39;;;;;;;2.72;0.55;;;24.90;60.00;;;;;;5015649;28;20033;-79
2022/07/02 08:50:07;;;;;;;2.53;0.82;;;25.60;60.10;;;;;;5025716;28;20053;-80
2022/07/02 08:52:33;;;;;;;2.53;0.80;;;25.80;58.40;;;;;;5026737;28;20476;-80
2022/07/02 08:55:00;;;;;;;1.13;0.60;;;25.60;60.40;;;;;;5021327;28;20375;-79
2022/07/02 08:57:49;;;;;;;1.55;0.40;;;26.00;59.10;;;;;;5032452;28;20387;-79
2022/07/02 09:00:16;;;;;;;0.90;0.35;;;26.40;57.30;;;;;;5015718;28;20304;-79
2022/07/02 09:02:43;;;;;;;2.13;0.70;;;26.90;54.30;;;;;;5016019;28;20034;-79
2022/07/02 09:05:11;;;;;;;1.73;0.57;;;26.90;55.30;;;;;;5015517;28;20494;-80
2022/07/02 09:07:39;;;;;;;2.92;0.52;;;26.40;54.40;;;;;;5017735;28;20030;-80
2022/07/02 09:10:05;;;;;;;1.75;0.65;;;26.10;56.60;;;;;;5037266;28;20037;-79
2022/07/02 09:12:32;;;;;;;1.27;0.55;;;26.10;57.10;;;;;;5024993;28;20460;-81
2022/07/02 09:14:59;;;;;;;19.45;1.98;;;26.40;57.40;;;;;;5028196;28;20364;-77
2022/07/02 09:17:25;;;;;;;0.80;0.40;;;26.20;55.20;;;;;;5028413;28;20030;-78
2022/07/02 09:19:51;;;;;;;1.52;0.50;;;25.80;55.60;;;;;;5025836;28;20030;-80
2022/07/02 09:22:17;;;;;;;2.38;0.40;;;26.30;54.30;;;;;;5044682;28;20046;-78
2022/07/02 09:24:44;;;;;;;2.03;0.45;;;26.00;56.20;;;;;;5021283;28;20383;-78
2022/07/02 09:27:14;;;;;;;1.73;0.55;;;26.40;56.00;;;;;;5028738;28;20469;-78
2022/07/02 09:29:46;;;;;;;2.22;0.52;;;26.80;54.30;;;;;;5027957;28;20040;-78
2022/07/02 09:32:15;;;;;;;1.52;0.40;;;27.00;53.50;;;;;;5027082;28;20053;-79
2022/07/02 09:34:46;;;;;;;1.30;0.40;;;27.10;54.30;;;;;;5021970;28;20053;-78
2022/07/02 09:37:13;;;;;;;0.85;0.47;;;27.30;54.60;;;;;;5024946;28;20037;-77
2022/07/02 09:39:40;;;;;;;0.68;0.40;;;27.50;53.20;;;;;;5023747;28;20080;-78
2022/07/02 09:42:06;;;;;;;0.45;0.40;;;27.70;52.70;;;;;;5019099;28;20042;-78
2022/07/02 09:44:33;;;;;;;0.80;0.30;;;27.60;52.90;;;;;;5017072;28;20026;-80
2022/07/02 09:46:59;;;;;;;0.75;0.40;;;27.70;52.50;;;;;;5024650;28;20037;-78
2022/07/02 09:49:25;;;;;;;0.60;0.30;;;28.20;52.00;;;;;;5022181;28;20041;-76
2022/07/02 09:51:53;;;;;;;0.47;0.30;;;27.60;51.80;;;;;;5024167;28;20033;-76
2022/07/02 09:54:21;;;;;;;1.13;0.30;;;27.30;48.50;;;;;;5020281;28;20475;-77
2022/07/02 09:56:57;;;;;;;1.33;0.40;;;26.20;49.30;;;;;;5023139;28;20037;-79
2022/07/02 09:59:24;;;;;;;0.55;0.22;;;25.60;49.50;;;;;;5024635;28;20025;-76
2022/07/02 10:01:51;;;;;;;0.90;0.40;;;26.50;50.80;;;;;;5027856;28;20420;-76
2022/07/02 10:04:28;;;;;;;0.40;0.30;;;27.10;48.40;;;;;;5025096;28;20089;-78
2022/07/02 10:06:54;;;;;;;0.38;0.30;;;26.40;49.10;;;;;;5035923;28;20049;-77
2022/07/02 10:09:22;;;;;;;0.50;0.30;;;27.00;49.10;;;;;;5027427;28;20037;-78
2022/07/02 10:11:49;;;;;;;0.50;0.25;;;27.20;49.30;;;;;;5024233;28;20037;-77
2022/07/02 10:14:19;;;;;;;1.10;0.68;;;27.10;50.60;;;;;;5016371;28;20626;-78
2022/07/02 10:16:47;;;;;;;2.38;1.15;;;27.30;48.70;;;;;;5026624;28;20054;-78
2022/07/02 10:19:14;;;;;;;0.65;0.30;;;27.50;49.00;;;;;;5027363;28;20044;-77
2022/07/02 10:21:42;;;;;;;1.90;0.40;;;27.10;48.70;;;;;;5028509;28;20048;-78
2022/07/02 10:24:09;;;;;;;0.60;0.40;;;26.70;48.40;;;;;;5023823;28;20033;-78
2022/07/02 10:26:36;;;;;;;1.85;0.50;;;26.60;49.80;;;;;;5028606;28;20344;-77
2022/07/02 10:29:03;;;;;;;0.55;0.30;;;26.90;49.60;;;;;;5026894;28;20029;-78
2022/07/02 10:31:37;;;;;;;1.38;0.30;;;26.50;49.90;;;;;;5044978;28;20070;-76
2022/07/02 10:34:19;;;;;;;1.27;0.40;;;26.50;50.40;;;;;;5027904;28;20040;-77
2022/07/02 10:36:46;;;;;;;1.67;0.30;;;26.90;51.00;;;;;;5028236;28;20053;-78
2022/07/02 10:39:16;;;;;;;0.45;0.40;;;27.10;48.30;;;;;;5027923;28;20036;-78
2022/07/02 10:41:42;;;;;;;3.25;1.10;;;26.40;48.40;;;;;;5030347;28;20037;-80
2022/07/02 10:44:09;;;;;;;4.13;0.50;;;25.60;49.70;;;;;;5013349;28;20033;-80
2022/07/02 10:46:36;;;;;;;0.57;0.38;;;26.10;51.30;;;;;;5023784;28;20034;-79
2022/07/02 10:49:06;;;;;;;0.55;0.30;;;26.60;49.30;;;;;;5016524;28;20037;-78
2022/07/02 10:51:35;;;;;;;;;;;26.60;48.90;;;;;;5015768;28;20037;-79
2022/07/02 10:54:03;;;;;;;2.53;0.50;;;26.00;49.30;;;;;;5018620;28;20457;-76
2022/07/02 10:56:41;;;;;;;0.40;0.30;;;25.70;48.40;;;;;;5017659;28;20040;-77
2022/07/02 10:59:22;;;;;;;1.65;0.40;;;25.50;48.80;;;;;;5036022;28;20033;-80
2022/07/02 11:02:00;;;;;;;1.45;0.30;;;25.80;48.90;;;;;;5020707;28;20037;-77
2022/07/02 11:04:26;;;;;;;0.40;0.35;;;26.10;49.10;;;;;;5026912;28;20025;-78
2022/07/02 11:07:06;;;;;;;0.70;0.40;;;26.30;48.90;;;;;;5026392;28;20036;-78
2022/07/02 11:09:43;;;;;;;;;;;26.70;48.90;;;;;;5028041;28;20041;-78
2022/07/02 11:12:09;;;;;;;0.43;0.30;;;27.00;48.10;;;;;;5017050;28;20362;-80
2022/07/02 11:14:37;;;;;;;0.88;0.47;;;26.60;48.00;;;;;;5032484;28;20053;-77
2022/07/02 11:17:04;;;;;;;1.13;0.30;;;26.30;47.70;;;;;;5023712;28;20037;-80
2022/07/02 11:19:31;;;;;;;1.15;0.40;;;26.40;47.90;;;;;;5027711;28;20041;-80
2022/07/02 11:21:59;;;;;;;0.98;0.30;;;26.50;47.50;;;;;;5025626;28;20034;-81
2022/07/02 11:24:29;;;;;;;1.08;0.35;;;26.70;47.30;;;;;;5028501;28;20037;-77
2022/07/02 11:26:55;;;;;;;2.80;0.35;;;26.80;47.20;;;;;;5026390;28;20378;-80
2022/07/02 11:29:22;;;;;;;0.95;0.20;;;27.00;46.60;;;;;;5028590;28;20037;-80
2022/07/02 11:31:50;;;;;;;0.35;0.30;;;27.10;47.70;;;;;;5016246;28;20049;-80
2022/07/02 11:34:21;;;;;;;1.48;0.45;;;27.40;47.50;;;;;;5037281;28;20034;-79
2022/07/02 11:36:47;;;;;;;0.65;0.30;;;27.40;46.80;;;;;;5024918;28;20052;-77
2022/07/02 11:39:16;;;;;;;0.40;0.30;;;27.40;47.00;;;;;;5032420;28;20418;-80
2022/07/02 11:41:44;;;;;;;0.50;0.30;;;27.50;46.30;;;;;;5033602;28;20502;-79
2022/07/02 11:44:24;;;;;;;2.90;0.43;;;27.50;47.80;;;;;;5032517;28;20037;-76
2022/07/02 11:46:52;;;;;;;1.95;0.40;;;26.80;47.30;;;;;;5033171;28;20434;-77
2022/07/02 11:49:28;;;;;;;0.35;0.30;;;26.40;47.10;;;;;;5028633;28;20026;-79
2022/07/02 11:51:55;;;;;;;0.65;0.40;;;26.50;47.60;;;;;;5026696;28;20355;-79
2022/07/02 11:54:22;;;;;;;0.60;0.40;;;26.70;47.90;;;;;;5021550;28;20056;-79
2022/07/02 11:56:50;;;;;;;0.73;0.30;;;27.00;48.10;;;;;;5029888;28;20034;-79
2022/07/02 11:59:25;;;;;;;1.85;0.40;;;27.40;47.90;;;;;;5027124;28;20030;-78
2022/07/02 12:01:53;;;;;;;1.83;0.50;;;27.70;47.00;;;;;;5024328;28;20046;-79
2022/07/02 12:04:21;;;;;;;0.20;0.20;;;27.50;46.80;;;;;;5019719;28;20056;-75
2022/07/02 12:06:51;;;;;;;4.32;0.40;;;27.00;46.10;;;;;;5023507;28;20395;-76
2022/07/02 12:09:22;;;;;;;1.40;0.40;;;26.90;46.30;;;;;;5022497;28;20029;-77
2022/07/02 12:11:49;;;;;;;0.82;0.40;;;26.60;46.90;;;;;;5026294;28;20030;-75
2022/07/02 12:14:16;;;;;;;0.77;0.57;;;26.60;47.50;;;;;;5018352;28;20037;-75
2022/07/02 12:16:46;;;;;;;2.55;0.40;;;26.90;48.00;;;;;;5024069;28;20042;-74
2022/07/02 12:19:16;;;;;;;0.63;0.50;;;27.10;47.10;;;;;;5020528;28;20044;-74
2022/07/02 12:21:47;;;;;;;0.82;0.40;;;27.40;47.10;;;;;;5025058;28;20029;-75
2022/07/02 12:24:29;;;;;;;0.95;0.30;;;26.80;46.60;;;;;;5014282;28;20037;-75
2022/07/02 12:27:03;;;;;;;3.20;0.30;;;26.70;47.00;;;;;;5023994;28;20049;-82
2022/07/02 12:32:28;;;;;;;0.30;0.22;;;26.50;46.50;;;;;;5017028;28;20412;-76
2022/07/02 12:34:55;;;;;;;1.30;0.45;;;26.20;46.70;;;;;;5022313;28;20033;-75
2022/07/02 12:37:27;;;;;;;2.47;0.40;;;26.60;47.80;;;;;;5017633;28;20029;-80
2022/07/02 12:40:00;;;;;;;0.32;0.30;;;26.90;46.40;;;;;;5019711;28;20046;-75
2022/07/02 12:42:28;;;;;;;5.13;0.73;;;27.10;46.40;;;;;;5019407;28;20220;-78
2022/07/02 12:44:59;;;;;;;0.82;0.40;;;27.20;46.30;;;;;;5023090;28;20456;-76
2022/07/02 12:47:37;;;;;;;1.88;0.35;;;26.40;45.30;;;;;;5021523;28;20033;-78
2022/07/02 12:50:04;;;;;;;0.30;0.28;;;26.30;46.20;;;;;;5030479;28;20061;-76
2022/07/02 12:52:50;;;;;;;0.80;0.30;;;26.60;46.80;;;;;;5018461;28;20037;-76